sensor_id;sensor_type;location;lat;lon;timestamp;P1;durP1;ratioP1;P2;durP2;ratioP2
36827;SDS011;22766;48.042;11.192;2022-07-25T00:02:01;7.63;;;4.45;;
36827;SDS011;22766;48.042;11.192;2022-07-25T00:04:28;7.82;;;4.55;;
36827;SDS011;22766;48.042;11.192;2022-07-25T00:06:54;8.05;;;4.90;;
36827;SDS011;22766;48.042;11.192;2022-07-25T00:09:21;7.72;;;4.85;;
36827;SDS011;22766;48.042;11.192;2022-07-25T00:11:48;8.07;;;4.80;;
36827;SDS011;22766;48.042;11.192;2022-07-25T00:14:14;8.13;;;4.65;;
36827;SDS011;22766;48.042;11.192;2022-07-25T00:16:41;8.32;;;5.32;;
36827;SDS011;22766;48.042;11.192;2022-07-25T00:19:09;5.95;;;4.05;;
36827;SDS011;22766;48.042;11.192;2022-07-25T00:21:36;8.00;;;4.07;;
36827;SDS011;22766;48.042;11.192;2022-07-25T00:24:02;9.85;;;5.18;;
36827;SDS011;22766;48.042;11.192;2022-07-25T00:26:29;7.93;;;4.97;;
36827;SDS011;22766;48.042;11.192;2022-07-25T00:29:00;7.53;;;5.07;;
36827;SDS011;22766;48.042;11.192;2022-07-25T00:31:27;6.13;;;4.15;;
36827;SDS011;22766;48.042;11.192;2022-07-25T00:33:54;10.25;;;5.07;;
36827;SDS011;22766;48.042;11.192;2022-07-25T00:36:21;7.05;;;4.78;;
36827;SDS011;22766;48.042;11.192;2022-07-25T00:38:48;7.20;;;5.10;;
36827;SDS011;22766;48.042;11.192;2022-07-25T00:41:14;6.22;;;4.30;;
36827;SDS011;22766;48.042;11.192;2022-07-25T00:43:42;10.38;;;5.22;;
36827;SDS011;22766;48.042;11.192;2022-07-25T00:46:13;7.50;;;5.15;;
36827;SDS011;22766;48.042;11.192;2022-07-25T00:48:44;9.32;;;4.72;;
36827;SDS011;22766;48.042;11.192;2022-07-25T00:51:11;10.60;;;5.13;;
36827;SDS011;22766;48.042;11.192;2022-07-25T00:53:38;11.43;;;5.15;;
36827;SDS011;22766;48.042;11.192;2022-07-25T00:56:05;8.07;;;4.35;;
36827;SDS011;22766;48.042;11.192;2022-07-25T00:58:32;6.55;;;4.40;;
36827;SDS011;22766;48.042;11.192;2022-07-25T01:00:59;8.88;;;5.70;;
36827;SDS011;22766;48.042;11.192;2022-07-25T01:03:27;8.73;;;5.35;;
36827;SDS011;22766;48.042;11.192;2022-07-25T01:05:54;8.25;;;4.68;;
36827;SDS011;22766;48.042;11.192;2022-07-25T01:08:20;8.05;;;4.60;;
36827;SDS011;22766;48.042;11.192;2022-07-25T01:10:47;6.88;;;4.22;;
36827;SDS011;22766;48.042;11.192;2022-07-25T01:13:14;6.35;;;4.50;;
36827;SDS011;22766;48.042;11.192;2022-07-25T01:15:41;7.70;;;4.95;;
36827;SDS011;22766;48.042;11.192;2022-07-25T01:18:08;7.97;;;4.78;;
36827;SDS011;22766;48.042;11.192;2022-07-25T01:20:35;6.88;;;4.47;;
36827;SDS011;22766;48.042;11.192;2022-07-25T01:23:01;6.68;;;4.53;;
36827;SDS011;22766;48.042;11.192;2022-07-25T01:25:28;6.00;;;4.60;;
36827;SDS011;22766;48.042;11.192;2022-07-25T01:27:58;8.88;;;5.55;;
36827;SDS011;22766;48.042;11.192;2022-07-25T01:30:25;8.85;;;4.90;;
36827;SDS011;22766;48.042;11.192;2022-07-25T01:32:52;7.90;;;4.78;;
36827;SDS011;22766;48.042;11.192;2022-07-25T01:35:19;7.10;;;5.10;;
36827;SDS011;22766;48.042;11.192;2022-07-25T01:37:46;9.82;;;5.32;;
36827;SDS011;22766;48.042;11.192;2022-07-25T01:40:13;7.18;;;4.55;;
36827;SDS011;22766;48.042;11.192;2022-07-25T01:42:40;8.48;;;5.18;;
36827;SDS011;22766;48.042;11.192;2022-07-25T01:45:08;9.05;;;5.10;;
36827;SDS011;22766;48.042;11.192;2022-07-25T01:47:35;7.22;;;4.78;;
36827;SDS011;22766;48.042;11.192;2022-07-25T01:50:03;10.10;;;5.28;;
36827;SDS011;22766;48.042;11.192;2022-07-25T01:52:30;7.53;;;4.60;;
36827;SDS011;22766;48.042;11.192;2022-07-25T01:54:57;7.72;;;4.97;;
36827;SDS011;22766;48.042;11.192;2022-07-25T01:57:24;8.10;;;4.38;;
36827;SDS011;22766;48.042;11.192;2022-07-25T01:59:56;7.85;;;5.20;;
36827;SDS011;22766;48.042;11.192;2022-07-25T02:02:23;7.78;;;4.57;;
36827;SDS011;22766;48.042;11.192;2022-07-25T02:04:50;7.15;;;4.85;;
36827;SDS011;22766;48.042;11.192;2022-07-25T02:07:17;9.00;;;5.53;;
36827;SDS011;22766;48.042;11.192;2022-07-25T02:09:44;8.75;;;5.43;;
36827;SDS011;22766;48.042;11.192;2022-07-25T02:12:11;7.18;;;4.90;;
36827;SDS011;22766;48.042;11.192;2022-07-25T02:14:37;7.88;;;5.47;;
36827;SDS011;22766;48.042;11.192;2022-07-25T02:17:04;8.43;;;4.80;;
36827;SDS011;22766;48.042;11.192;2022-07-25T02:19:31;7.47;;;4.43;;
36827;SDS011;22766;48.042;11.192;2022-07-25T02:21:58;8.70;;;4.68;;
36827;SDS011;22766;48.042;11.192;2022-07-25T02:24:25;6.57;;;4.63;;
36827;SDS011;22766;48.042;11.192;2022-07-25T02:26:52;6.63;;;4.78;;
36827;SDS011;22766;48.042;11.192;2022-07-25T02:29:19;8.77;;;4.70;;
36827;SDS011;22766;48.042;11.192;2022-07-25T02:31:47;7.18;;;5.05;;
36827;SDS011;22766;48.042;11.192;2022-07-25T02:34:14;7.53;;;5.22;;
36827;SDS011;22766;48.042;11.192;2022-07-25T02:36:41;7.07;;;4.82;;
36827;SDS011;22766;48.042;11.192;2022-07-25T02:39:07;7.93;;;4.70;;
36827;SDS011;22766;48.042;11.192;2022-07-25T02:41:34;9.18;;;5.25;;
36827;SDS011;22766;48.042;11.192;2022-07-25T02:44:00;11.82;;;5.68;;
36827;SDS011;22766;48.042;11.192;2022-07-25T02:46:27;9.70;;;4.93;;
36827;SDS011;22766;48.042;11.192;2022-07-25T02:48:54;9.98;;;5.88;;
36827;SDS011;22766;48.042;11.192;2022-07-25T02:51:21;11.10;;;5.85;;
36827;SDS011;22766;48.042;11.192;2022-07-25T02:53:50;6.75;;;4.78;;
36827;SDS011;22766;48.042;11.192;2022-07-25T02:56:25;8.18;;;5.55;;
36827;SDS011;22766;48.042;11.192;2022-07-25T02:58:55;8.98;;;5.03;;
36827;SDS011;22766;48.042;11.192;2022-07-25T03:01:22;7.82;;;5.10;;
36827;SDS011;22766;48.042;11.192;2022-07-25T03:03:49;10.38;;;5.75;;
36827;SDS011;22766;48.042;11.192;2022-07-25T03:06:16;9.25;;;5.60;;
36827;SDS011;22766;48.042;11.192;2022-07-25T03:08:43;9.27;;;5.85;;
36827;SDS011;22766;48.042;11.192;2022-07-25T03:11:10;7.30;;;5.10;;
36827;SDS011;22766;48.042;11.192;2022-07-25T03:13:37;9.23;;;6.13;;
36827;SDS011;22766;48.042;11.192;2022-07-25T03:16:05;8.63;;;5.68;;
36827;SDS011;22766;48.042;11.192;2022-07-25T03:18:32;6.07;;;4.57;;
36827;SDS011;22766;48.042;11.192;2022-07-25T03:20:58;7.13;;;4.80;;
36827;SDS011;22766;48.042;11.192;2022-07-25T03:23:25;7.63;;;5.22;;
36827;SDS011;22766;48.042;11.192;2022-07-25T03:25:53;8.60;;;5.50;;
36827;SDS011;22766;48.042;11.192;2022-07-25T03:28:21;8.25;;;5.22;;
36827;SDS011;22766;48.042;11.192;2022-07-25T03:30:48;9.07;;;5.18;;
36827;SDS011;22766;48.042;11.192;2022-07-25T03:33:14;7.82;;;5.05;;
36827;SDS011;22766;48.042;11.192;2022-07-25T03:35:42;8.40;;;5.25;;
36827;SDS011;22766;48.042;11.192;2022-07-25T03:38:10;8.30;;;5.68;;
36827;SDS011;22766;48.042;11.192;2022-07-25T03:40:37;7.70;;;5.07;;
36827;SDS011;22766;48.042;11.192;2022-07-25T03:43:03;6.30;;;4.30;;
36827;SDS011;22766;48.042;11.192;2022-07-25T03:45:30;9.18;;;4.97;;
36827;SDS011;22766;48.042;11.192;2022-07-25T03:47:57;7.65;;;5.22;;
36827;SDS011;22766;48.042;11.192;2022-07-25T03:50:24;9.13;;;5.38;;
36827;SDS011;22766;48.042;11.192;2022-07-25T03:52:50;8.02;;;5.75;;
36827;SDS011;22766;48.042;11.192;2022-07-25T03:55:17;8.32;;;5.40;;
36827;SDS011;22766;48.042;11.192;2022-07-25T03:57:44;7.15;;;4.93;;
36827;SDS011;22766;48.042;11.192;2022-07-25T04:00:10;7.22;;;4.80;;
36827;SDS011;22766;48.042;11.192;2022-07-25T04:02:37;7.07;;;4.97;;
36827;SDS011;22766;48.042;11.192;2022-07-25T04:05:05;8.05;;;5.07;;
36827;SDS011;22766;48.042;11.192;2022-07-25T04:07:33;6.65;;;4.68;;
36827;SDS011;22766;48.042;11.192;2022-07-25T04:10:00;11.02;;;5.72;;
36827;SDS011;22766;48.042;11.192;2022-07-25T04:12:26;8.48;;;5.03;;
36827;SDS011;22766;48.042;11.192;2022-07-25T04:14:53;7.75;;;5.47;;
36827;SDS011;22766;48.042;11.192;2022-07-25T04:17:20;8.35;;;5.07;;
36827;SDS011;22766;48.042;11.192;2022-07-25T04:19:46;8.00;;;4.88;;
36827;SDS011;22766;48.042;11.192;2022-07-25T04:22:14;8.57;;;5.15;;
36827;SDS011;22766;48.042;11.192;2022-07-25T04:24:41;9.57;;;5.80;;
36827;SDS011;22766;48.042;11.192;2022-07-25T04:27:07;9.77;;;5.00;;
36827;SDS011;22766;48.042;11.192;2022-07-25T04:29:34;7.50;;;5.13;;
36827;SDS011;22766;48.042;11.192;2022-07-25T04:32:00;9.65;;;5.45;;
36827;SDS011;22766;48.042;11.192;2022-07-25T04:34:27;10.70;;;6.15;;
36827;SDS011;22766;48.042;11.192;2022-07-25T04:36:54;9.27;;;6.00;;
36827;SDS011;22766;48.042;11.192;2022-07-25T04:39:21;8.05;;;5.38;;
36827;SDS011;22766;48.042;11.192;2022-07-25T04:41:47;8.48;;;5.82;;
36827;SDS011;22766;48.042;11.192;2022-07-25T04:44:14;10.60;;;6.90;;
36827;SDS011;22766;48.042;11.192;2022-07-25T04:46:41;10.73;;;7.35;;
36827;SDS011;22766;48.042;11.192;2022-07-25T04:49:07;8.57;;;5.63;;
36827;SDS011;22766;48.042;11.192;2022-07-25T04:51:34;10.30;;;5.63;;
36827;SDS011;22766;48.042;11.192;2022-07-25T04:54:01;10.40;;;6.35;;
36827;SDS011;22766;48.042;11.192;2022-07-25T04:56:28;10.40;;;6.10;;
36827;SDS011;22766;48.042;11.192;2022-07-25T04:58:55;9.75;;;5.97;;
36827;SDS011;22766;48.042;11.192;2022-07-25T05:01:27;9.20;;;6.15;;
36827;SDS011;22766;48.042;11.192;2022-07-25T05:03:53;9.10;;;6.05;;
36827;SDS011;22766;48.042;11.192;2022-07-25T05:06:20;9.25;;;5.85;;
36827;SDS011;22766;48.042;11.192;2022-07-25T05:08:47;9.88;;;6.10;;
36827;SDS011;22766;48.042;11.192;2022-07-25T05:11:14;8.95;;;6.28;;
36827;SDS011;22766;48.042;11.192;2022-07-25T05:13:40;9.05;;;6.22;;
36827;SDS011;22766;48.042;11.192;2022-07-25T05:16:07;9.63;;;6.07;;
36827;SDS011;22766;48.042;11.192;2022-07-25T05:18:34;7.38;;;4.97;;
36827;SDS011;22766;48.042;11.192;2022-07-25T05:21:00;10.32;;;6.63;;
36827;SDS011;22766;48.042;11.192;2022-07-25T05:23:27;10.98;;;6.18;;
36827;SDS011;22766;48.042;11.192;2022-07-25T05:25:54;9.82;;;6.18;;
36827;SDS011;22766;48.042;11.192;2022-07-25T05:28:20;10.85;;;6.65;;
36827;SDS011;22766;48.042;11.192;2022-07-25T05:30:47;8.57;;;5.93;;
36827;SDS011;22766;48.042;11.192;2022-07-25T05:33:13;10.05;;;6.68;;
36827;SDS011;22766;48.042;11.192;2022-07-25T05:35:40;10.00;;;5.78;;
36827;SDS011;22766;48.042;11.192;2022-07-25T05:38:07;8.88;;;6.35;;
36827;SDS011;22766;48.042;11.192;2022-07-25T05:40:33;12.63;;;6.80;;
36827;SDS011;22766;48.042;11.192;2022-07-25T05:43:00;10.57;;;5.97;;
36827;SDS011;22766;48.042;11.192;2022-07-25T05:45:29;8.65;;;6.03;;
36827;SDS011;22766;48.042;11.192;2022-07-25T05:47:56;8.98;;;6.57;;
36827;SDS011;22766;48.042;11.192;2022-07-25T05:50:23;9.18;;;5.93;;
36827;SDS011;22766;48.042;11.192;2022-07-25T05:52:49;11.43;;;6.53;;
36827;SDS011;22766;48.042;11.192;2022-07-25T05:55:16;11.27;;;6.78;;
36827;SDS011;22766;48.042;11.192;2022-07-25T05:57:43;11.05;;;6.95;;
36827;SDS011;22766;48.042;11.192;2022-07-25T06:00:10;12.27;;;7.13;;
36827;SDS011;22766;48.042;11.192;2022-07-25T06:02:37;10.23;;;7.20;;
36827;SDS011;22766;48.042;11.192;2022-07-25T06:05:04;9.13;;;6.43;;
36827;SDS011;22766;48.042;11.192;2022-07-25T06:07:31;9.55;;;6.18;;
36827;SDS011;22766;48.042;11.192;2022-07-25T06:09:58;9.45;;;6.45;;
36827;SDS011;22766;48.042;11.192;2022-07-25T06:12:24;8.90;;;6.35;;
36827;SDS011;22766;48.042;11.192;2022-07-25T06:14:51;9.05;;;6.45;;
36827;SDS011;22766;48.042;11.192;2022-07-25T06:17:18;8.85;;;6.43;;
36827;SDS011;22766;48.042;11.192;2022-07-25T06:19:45;10.10;;;6.60;;
36827;SDS011;22766;48.042;11.192;2022-07-25T06:22:12;9.85;;;6.13;;
36827;SDS011;22766;48.042;11.192;2022-07-25T06:24:40;8.48;;;5.88;;
36827;SDS011;22766;48.042;11.192;2022-07-25T06:27:06;10.35;;;6.57;;
36827;SDS011;22766;48.042;11.192;2022-07-25T06:29:34;9.13;;;5.75;;
36827;SDS011;22766;48.042;11.192;2022-07-25T06:32:01;10.13;;;6.15;;
36827;SDS011;22766;48.042;11.192;2022-07-25T06:34:28;7.72;;;5.82;;
36827;SDS011;22766;48.042;11.192;2022-07-25T06:36:55;9.30;;;6.32;;
36827;SDS011;22766;48.042;11.192;2022-07-25T06:39:23;9.20;;;6.10;;
36827;SDS011;22766;48.042;11.192;2022-07-25T06:41:51;7.25;;;5.65;;
36827;SDS011;22766;48.042;11.192;2022-07-25T06:44:17;9.95;;;6.10;;
36827;SDS011;22766;48.042;11.192;2022-07-25T06:46:44;6.25;;;5.30;;
36827;SDS011;22766;48.042;11.192;2022-07-25T06:49:11;9.88;;;6.38;;
36827;SDS011;22766;48.042;11.192;2022-07-25T06:51:38;8.60;;;5.88;;
36827;SDS011;22766;48.042;11.192;2022-07-25T06:54:04;10.00;;;5.90;;
36827;SDS011;22766;48.042;11.192;2022-07-25T06:56:32;7.15;;;5.53;;
36827;SDS011;22766;48.042;11.192;2022-07-25T06:58:58;8.75;;;5.38;;
36827;SDS011;22766;48.042;11.192;2022-07-25T07:01:25;10.60;;;6.05;;
36827;SDS011;22766;48.042;11.192;2022-07-25T07:03:52;8.65;;;5.97;;
36827;SDS011;22766;48.042;11.192;2022-07-25T07:06:20;8.20;;;5.22;;
36827;SDS011;22766;48.042;11.192;2022-07-25T07:08:46;6.80;;;5.45;;
36827;SDS011;22766;48.042;11.192;2022-07-25T07:11:13;7.63;;;5.50;;
36827;SDS011;22766;48.042;11.192;2022-07-25T07:13:40;8.07;;;5.45;;
36827;SDS011;22766;48.042;11.192;2022-07-25T07:16:07;7.93;;;5.43;;
36827;SDS011;22766;48.042;11.192;2022-07-25T07:18:34;7.20;;;5.10;;
36827;SDS011;22766;48.042;11.192;2022-07-25T07:21:02;7.47;;;5.30;;
36827;SDS011;22766;48.042;11.192;2022-07-25T07:23:29;9.50;;;4.80;;
36827;SDS011;22766;48.042;11.192;2022-07-25T07:25:57;8.57;;;5.68;;
36827;SDS011;22766;48.042;11.192;2022-07-25T07:28:24;7.32;;;5.07;;
36827;SDS011;22766;48.042;11.192;2022-07-25T07:30:51;7.68;;;5.22;;
36827;SDS011;22766;48.042;11.192;2022-07-25T07:33:38;10.07;;;5.85;;
36827;SDS011;22766;48.042;11.192;2022-07-25T07:36:04;9.25;;;5.43;;
36827;SDS011;22766;48.042;11.192;2022-07-25T07:38:31;10.23;;;6.43;;
36827;SDS011;22766;48.042;11.192;2022-07-25T07:40:58;7.15;;;5.45;;
36827;SDS011;22766;48.042;11.192;2022-07-25T07:43:24;8.05;;;5.35;;
36827;SDS011;22766;48.042;11.192;2022-07-25T07:45:56;8.07;;;5.90;;
36827;SDS011;22766;48.042;11.192;2022-07-25T07:48:26;10.05;;;5.65;;
36827;SDS011;22766;48.042;11.192;2022-07-25T07:50:54;7.00;;;5.15;;
36827;SDS011;22766;48.042;11.192;2022-07-25T07:53:21;7.30;;;5.32;;
36827;SDS011;22766;48.042;11.192;2022-07-25T07:55:47;6.93;;;5.50;;
36827;SDS011;22766;48.042;11.192;2022-07-25T07:58:20;7.57;;;5.50;;
36827;SDS011;22766;48.042;11.192;2022-07-25T08:00:47;7.28;;;5.80;;
36827;SDS011;22766;48.042;11.192;2022-07-25T08:03:17;8.73;;;5.32;;
36827;SDS011;22766;48.042;11.192;2022-07-25T08:05:46;8.80;;;5.25;;
36827;SDS011;22766;48.042;11.192;2022-07-25T08:08:14;7.72;;;5.57;;
36827;SDS011;22766;48.042;11.192;2022-07-25T08:10:42;7.70;;;5.63;;
36827;SDS011;22766;48.042;11.192;2022-07-25T08:13:14;8.07;;;5.35;;
36827;SDS011;22766;48.042;11.192;2022-07-25T08:15:43;7.25;;;5.50;;
36827;SDS011;22766;48.042;11.192;2022-07-25T08:18:12;6.63;;;5.23;;
36827;SDS011;22766;48.042;11.192;2022-07-25T08:20:43;7.28;;;5.25;;
36827;SDS011;22766;48.042;11.192;2022-07-25T08:23:13;7.73;;;4.93;;
36827;SDS011;22766;48.042;11.192;2022-07-25T08:25:40;8.73;;;5.15;;
36827;SDS011;22766;48.042;11.192;2022-07-25T08:28:07;7.05;;;5.72;;
36827;SDS011;22766;48.042;11.192;2022-07-25T08:30:34;7.80;;;5.38;;
36827;SDS011;22766;48.042;11.192;2022-07-25T08:33:03;6.43;;;5.45;;
36827;SDS011;22766;48.042;11.192;2022-07-25T08:35:32;7.93;;;5.82;;
36827;SDS011;22766;48.042;11.192;2022-07-25T08:38:00;9.48;;;6.32;;
36827;SDS011;22766;48.042;11.192;2022-07-25T08:40:27;9.07;;;5.68;;
36827;SDS011;22766;48.042;11.192;2022-07-25T08:42:55;9.15;;;5.78;;
36827;SDS011;22766;48.042;11.192;2022-07-25T08:45:24;8.25;;;5.22;;
36827;SDS011;22766;48.042;11.192;2022-07-25T08:47:53;7.80;;;4.82;;
36827;SDS011;22766;48.042;11.192;2022-07-25T08:50:21;7.65;;;5.90;;
36827;SDS011;22766;48.042;11.192;2022-07-25T08:52:50;10.05;;;5.32;;
36827;SDS011;22766;48.042;11.192;2022-07-25T08:55:37;9.98;;;5.03;;
36827;SDS011;22766;48.042;11.192;2022-07-25T08:58:04;7.10;;;5.18;;
36827;SDS011;22766;48.042;11.192;2022-07-25T09:00:31;7.50;;;5.13;;
36827;SDS011;22766;48.042;11.192;2022-07-25T09:02:59;7.60;;;5.95;;
36827;SDS011;22766;48.042;11.192;2022-07-25T09:05:29;9.00;;;5.93;;
36827;SDS011;22766;48.042;11.192;2022-07-25T09:07:57;8.90;;;6.40;;
36827;SDS011;22766;48.042;11.192;2022-07-25T09:10:32;8.52;;;5.32;;
36827;SDS011;22766;48.042;11.192;2022-07-25T09:13:00;8.63;;;6.35;;
36827;SDS011;22766;48.042;11.192;2022-07-25T09:15:35;7.45;;;5.68;;
36827;SDS011;22766;48.042;11.192;2022-07-25T09:18:05;8.38;;;5.72;;
36827;SDS011;22766;48.042;11.192;2022-07-25T09:23:11;9.02;;;5.40;;
36827;SDS011;22766;48.042;11.192;2022-07-25T09:25:39;7.30;;;5.57;;
36827;SDS011;22766;48.042;11.192;2022-07-25T09:28:13;7.07;;;5.15;;
36827;SDS011;22766;48.042;11.192;2022-07-25T09:30:59;8.32;;;5.40;;
36827;SDS011;22766;48.042;11.192;2022-07-25T09:33:27;7.65;;;5.65;;
36827;SDS011;22766;48.042;11.192;2022-07-25T09:35:54;5.88;;;5.07;;
36827;SDS011;22766;48.042;11.192;2022-07-25T09:38:22;8.60;;;4.82;;
36827;SDS011;22766;48.042;11.192;2022-07-25T09:40:56;6.55;;;5.07;;
36827;SDS011;22766;48.042;11.192;2022-07-25T09:43:38;9.13;;;4.90;;
36827;SDS011;22766;48.042;11.192;2022-07-25T09:46:06;7.78;;;4.38;;
36827;SDS011;22766;48.042;11.192;2022-07-25T09:48:34;5.18;;;4.40;;
36827;SDS011;22766;48.042;11.192;2022-07-25T09:51:01;5.60;;;4.20;;
36827;SDS011;22766;48.042;11.192;2022-07-25T09:53:29;8.23;;;4.57;;
36827;SDS011;22766;48.042;11.192;2022-07-25T09:55:56;5.60;;;4.03;;
36827;SDS011;22766;48.042;11.192;2022-07-25T09:58:23;5.63;;;3.78;;
36827;SDS011;22766;48.042;11.192;2022-07-25T10:01:00;5.53;;;4.25;;
36827;SDS011;22766;48.042;11.192;2022-07-25T10:09:20;4.75;;;3.22;;
36827;SDS011;22766;48.042;11.192;2022-07-25T10:12:07;5.88;;;3.17;;
36827;SDS011;22766;48.042;11.192;2022-07-25T10:14:36;4.18;;;2.83;;
36827;SDS011;22766;48.042;11.192;2022-07-25T10:17:03;6.32;;;3.17;;
36827;SDS011;22766;48.042;11.192;2022-07-25T10:19:44;5.60;;;3.00;;
36827;SDS011;22766;48.042;11.192;2022-07-25T10:22:20;4.90;;;3.10;;
36827;SDS011;22766;48.042;11.192;2022-07-25T10:25:15;4.22;;;2.53;;
36827;SDS011;22766;48.042;11.192;2022-07-25T10:27:47;4.38;;;2.88;;
36827;SDS011;22766;48.042;11.192;2022-07-25T10:30:20;5.25;;;3.13;;
36827;SDS011;22766;48.042;11.192;2022-07-25T10:32:49;4.15;;;3.10;;
36827;SDS011;22766;48.042;11.192;2022-07-25T10:35:27;3.97;;;2.28;;
36827;SDS011;22766;48.042;11.192;2022-07-25T10:37:55;4.60;;;2.80;;
36827;SDS011;22766;48.042;11.192;2022-07-25T10:40:27;5.22;;;2.67;;
36827;SDS011;22766;48.042;11.192;2022-07-25T10:48:24;3.97;;;2.85;;
36827;SDS011;22766;48.042;11.192;2022-07-25T10:51:03;5.18;;;2.22;;
36827;SDS011;22766;48.042;11.192;2022-07-25T10:56:05;4.70;;;2.63;;
36827;SDS011;22766;48.042;11.192;2022-07-25T11:03:55;2.85;;;2.10;;
36827;SDS011;22766;48.042;11.192;2022-07-25T11:06:34;2.92;;;2.40;;
36827;SDS011;22766;48.042;11.192;2022-07-25T11:09:23;3.58;;;2.53;;
36827;SDS011;22766;48.042;11.192;2022-07-25T11:11:57;3.75;;;2.40;;
36827;SDS011;22766;48.042;11.192;2022-07-25T11:19:55;3.95;;;2.50;;
36827;SDS011;22766;48.042;11.192;2022-07-25T11:22:26;2.58;;;2.15;;
36827;SDS011;22766;48.042;11.192;2022-07-25T11:24:53;4.63;;;2.67;;
36827;SDS011;22766;48.042;11.192;2022-07-25T11:30:04;3.55;;;2.75;;
36827;SDS011;22766;48.042;11.192;2022-07-25T11:32:41;3.63;;;2.58;;
36827;SDS011;22766;48.042;11.192;2022-07-25T11:35:09;5.93;;;2.47;;
36827;SDS011;22766;48.042;11.192;2022-07-25T11:37:39;4.50;;;2.70;;
36827;SDS011;22766;48.042;11.192;2022-07-25T11:40:07;4.00;;;2.67;;
36827;SDS011;22766;48.042;11.192;2022-07-25T11:42:47;4.20;;;2.47;;
36827;SDS011;22766;48.042;11.192;2022-07-25T11:47:46;3.20;;;2.50;;
36827;SDS011;22766;48.042;11.192;2022-07-25T11:50:14;4.55;;;2.60;;
36827;SDS011;22766;48.042;11.192;2022-07-25T11:52:41;3.17;;;2.55;;
36827;SDS011;22766;48.042;11.192;2022-07-25T11:55:10;6.03;;;2.90;;
36827;SDS011;22766;48.042;11.192;2022-07-25T11:57:40;3.90;;;2.63;;
36827;SDS011;22766;48.042;11.192;2022-07-25T12:02:46;4.65;;;2.97;;
36827;SDS011;22766;48.042;11.192;2022-07-25T12:05:15;5.95;;;3.03;;
36827;SDS011;22766;48.042;11.192;2022-07-25T12:07:47;4.30;;;2.77;;
36827;SDS011;22766;48.042;11.192;2022-07-25T12:10:22;6.05;;;3.15;;
36827;SDS011;22766;48.042;11.192;2022-07-25T12:12:53;5.60;;;3.17;;
36827;SDS011;22766;48.042;11.192;2022-07-25T12:15:23;4.05;;;2.65;;
36827;SDS011;22766;48.042;11.192;2022-07-25T12:17:52;3.50;;;2.50;;
36827;SDS011;22766;48.042;11.192;2022-07-25T12:20:21;3.08;;;2.47;;
36827;SDS011;22766;48.042;11.192;2022-07-25T12:22:54;4.57;;;2.85;;
36827;SDS011;22766;48.042;11.192;2022-07-25T12:25:22;5.65;;;3.28;;
36827;SDS011;22766;48.042;11.192;2022-07-25T12:27:56;3.92;;;3.13;;
36827;SDS011;22766;48.042;11.192;2022-07-25T12:30:24;7.30;;;3.53;;
36827;SDS011;22766;48.042;11.192;2022-07-25T12:32:53;3.10;;;2.67;;
36827;SDS011;22766;48.042;11.192;2022-07-25T12:35:21;4.38;;;3.10;;
36827;SDS011;22766;48.042;11.192;2022-07-25T12:37:49;4.60;;;3.22;;
36827;SDS011;22766;48.042;11.192;2022-07-25T12:40:17;5.55;;;3.25;;
36827;SDS011;22766;48.042;11.192;2022-07-25T12:42:44;3.70;;;3.30;;
36827;SDS011;22766;48.042;11.192;2022-07-25T12:45:12;3.42;;;2.97;;
36827;SDS011;22766;48.042;11.192;2022-07-25T12:47:41;6.30;;;3.30;;
36827;SDS011;22766;48.042;11.192;2022-07-25T12:50:09;5.38;;;3.40;;
36827;SDS011;22766;48.042;11.192;2022-07-25T12:52:36;5.03;;;3.50;;
36827;SDS011;22766;48.042;11.192;2022-07-25T12:55:07;3.78;;;3.10;;
36827;SDS011;22766;48.042;11.192;2022-07-25T12:57:36;3.03;;;2.58;;
36827;SDS011;22766;48.042;11.192;2022-07-25T13:00:03;3.92;;;3.00;;
36827;SDS011;22766;48.042;11.192;2022-07-25T13:02:32;6.05;;;3.28;;
36827;SDS011;22766;48.042;11.192;2022-07-25T13:04:59;3.70;;;2.58;;
36827;SDS011;22766;48.042;11.192;2022-07-25T13:07:26;4.30;;;3.13;;
36827;SDS011;22766;48.042;11.192;2022-07-25T13:09:53;5.38;;;3.10;;
36827;SDS011;22766;48.042;11.192;2022-07-25T13:12:19;7.35;;;3.40;;
36827;SDS011;22766;48.042;11.192;2022-07-25T13:14:48;4.65;;;2.83;;
36827;SDS011;22766;48.042;11.192;2022-07-25T13:17:15;4.25;;;2.97;;
36827;SDS011;22766;48.042;11.192;2022-07-25T13:19:42;3.35;;;2.83;;
36827;SDS011;22766;48.042;11.192;2022-07-25T13:22:08;5.38;;;2.85;;
36827;SDS011;22766;48.042;11.192;2022-07-25T13:24:35;3.50;;;3.13;;
36827;SDS011;22766;48.042;11.192;2022-07-25T13:27:02;4.18;;;2.95;;
36827;SDS011;22766;48.042;11.192;2022-07-25T13:29:30;3.70;;;2.90;;
36827;SDS011;22766;48.042;11.192;2022-07-25T13:31:57;3.80;;;3.10;;
36827;SDS011;22766;48.042;11.192;2022-07-25T13:34:24;3.47;;;3.17;;
36827;SDS011;22766;48.042;11.192;2022-07-25T13:36:51;3.25;;;2.60;;
36827;SDS011;22766;48.042;11.192;2022-07-25T13:39:18;4.22;;;2.70;;
36827;SDS011;22766;48.042;11.192;2022-07-25T13:41:47;4.50;;;2.60;;
36827;SDS011;22766;48.042;11.192;2022-07-25T13:44:14;4.13;;;3.08;;
36827;SDS011;22766;48.042;11.192;2022-07-25T13:46:41;3.05;;;2.60;;
36827;SDS011;22766;48.042;11.192;2022-07-25T13:49:11;3.40;;;2.63;;
36827;SDS011;22766;48.042;11.192;2022-07-25T13:51:38;2.75;;;2.35;;
36827;SDS011;22766;48.042;11.192;2022-07-25T13:54:05;4.45;;;2.92;;
36827;SDS011;22766;48.042;11.192;2022-07-25T13:56:32;5.43;;;3.10;;
36827;SDS011;22766;48.042;11.192;2022-07-25T13:59:00;3.90;;;3.00;;
36827;SDS011;22766;48.042;11.192;2022-07-25T14:03:55;4.28;;;2.80;;
36827;SDS011;22766;48.042;11.192;2022-07-25T14:06:22;3.55;;;2.92;;
36827;SDS011;22766;48.042;11.192;2022-07-25T14:08:49;3.38;;;2.80;;
36827;SDS011;22766;48.042;11.192;2022-07-25T14:11:16;6.20;;;2.75;;
36827;SDS011;22766;48.042;11.192;2022-07-25T14:13:42;3.60;;;2.63;;
36827;SDS011;22766;48.042;11.192;2022-07-25T14:16:11;6.43;;;2.58;;
36827;SDS011;22766;48.042;11.192;2022-07-25T14:18:41;5.82;;;2.80;;
36827;SDS011;22766;48.042;11.192;2022-07-25T14:21:08;4.50;;;2.50;;
36827;SDS011;22766;48.042;11.192;2022-07-25T14:23:36;3.08;;;2.50;;
36827;SDS011;22766;48.042;11.192;2022-07-25T14:26:03;5.32;;;2.85;;
36827;SDS011;22766;48.042;11.192;2022-07-25T14:28:29;5.82;;;2.80;;
36827;SDS011;22766;48.042;11.192;2022-07-25T14:30:56;3.40;;;2.25;;
36827;SDS011;22766;48.042;11.192;2022-07-25T14:33:25;4.15;;;2.42;;
36827;SDS011;22766;48.042;11.192;2022-07-25T14:35:51;3.35;;;2.20;;
36827;SDS011;22766;48.042;11.192;2022-07-25T14:38:18;2.42;;;2.22;;
36827;SDS011;22766;48.042;11.192;2022-07-25T14:40:45;3.70;;;2.22;;
36827;SDS011;22766;48.042;11.192;2022-07-25T14:43:14;3.15;;;2.75;;
36827;SDS011;22766;48.042;11.192;2022-07-25T14:45:40;2.60;;;2.17;;
36827;SDS011;22766;48.042;11.192;2022-07-25T14:48:07;3.08;;;2.40;;
36827;SDS011;22766;48.042;11.192;2022-07-25T14:50:34;3.03;;;2.30;;
36827;SDS011;22766;48.042;11.192;2022-07-25T14:53:00;2.95;;;2.63;;
36827;SDS011;22766;48.042;11.192;2022-07-25T14:55:27;2.60;;;2.17;;
36827;SDS011;22766;48.042;11.192;2022-07-25T14:57:54;2.92;;;2.60;;
36827;SDS011;22766;48.042;11.192;2022-07-25T15:00:23;2.22;;;1.90;;
36827;SDS011;22766;48.042;11.192;2022-07-25T15:02:54;3.03;;;2.30;;
36827;SDS011;22766;48.042;11.192;2022-07-25T15:05:21;3.15;;;2.50;;
36827;SDS011;22766;48.042;11.192;2022-07-25T15:07:48;2.90;;;1.95;;
36827;SDS011;22766;48.042;11.192;2022-07-25T15:10:15;3.10;;;2.42;;
36827;SDS011;22766;48.042;11.192;2022-07-25T15:12:42;2.45;;;2.13;;
36827;SDS011;22766;48.042;11.192;2022-07-25T15:15:09;2.75;;;2.00;;
36827;SDS011;22766;48.042;11.192;2022-07-25T15:17:36;2.35;;;1.83;;